createdAt,value
2022-08-07T00:02:41.467Z,12.40
2022-08-07T00:05:10.508Z,9.40
2022-08-07T00:07:42.211Z,7.30
2022-08-07T00:10:26.091Z,6.80
2022-08-07T00:13:09.574Z,5.90
2022-08-07T00:15:51.215Z,7.80
2022-08-07T00:18:25.855Z,7.30
2022-08-07T00:21:01.515Z,6.50
2022-08-07T00:23:35.237Z,6.10
2022-08-07T00:26:13.141Z,6.40
2022-08-07T00:29:01.463Z,5.70
2022-08-07T00:31:37.987Z,5.60
2022-08-07T00:34:13.408Z,6.10
2022-08-07T00:36:48.197Z,6.50
2022-08-07T00:39:21.204Z,6.70
2022-08-07T00:42:01.782Z,6.00
2022-08-07T00:44:34.776Z,5.70
2022-08-07T00:47:26.576Z,6.60
2022-08-07T00:50:21.486Z,6.90
2022-08-07T00:52:54.917Z,7.80
2022-08-07T00:56:03.181Z,10.40
2022-08-07T00:58:19.483Z,10.30
2022-08-07T01:00:53.949Z,9.10
2022-08-07T01:03:55.802Z,7.40
2022-08-07T01:06:18.102Z,7.00
2022-08-07T01:08:56.199Z,5.90
2022-08-07T01:12:08.980Z,6.60
2022-08-07T01:14:28.482Z,6.10
2022-08-07T01:17:04.089Z,6.70
2022-08-07T01:19:42.015Z,7.40
2022-08-07T01:22:29.176Z,7.40
2022-08-07T01:25:39.873Z,6.50
2022-08-07T01:27:54.606Z,6.30
2022-08-07T01:30:27.805Z,6.30
2022-08-07T01:33:02.262Z,6.40
2022-08-07T01:35:37.001Z,6.70
2022-08-07T01:38:26.142Z,8.20
2022-08-07T01:41:04.820Z,8.70
2022-08-07T01:43:38.937Z,8.80
2022-08-07T01:46:12.322Z,8.60
2022-08-07T01:48:46.634Z,8.40
2022-08-07T01:52:00.987Z,8.30
2022-08-07T01:54:33.369Z,6.70
2022-08-07T01:57:24.507Z,5.30
2022-08-07T02:00:03.204Z,6.10
2022-08-07T02:03:19.082Z,5.50
2022-08-07T02:05:48.192Z,5.90
2022-08-07T02:08:31.452Z,5.90
2022-08-07T02:11:04.435Z,5.90
2022-08-07T02:13:57.334Z,4.80
2022-08-07T02:16:33.237Z,4.70
2022-08-07T02:20:09.289Z,4.10
2022-08-07T02:22:02.751Z,4.40
2022-08-07T02:24:35.214Z,4.30
2022-08-07T02:27:08.590Z,4.40
2022-08-07T02:29:43.437Z,4.40
2022-08-07T02:32:23.564Z,4.20
2022-08-07T02:35:00.755Z,4.50
2022-08-07T02:37:36.026Z,4.50
2022-08-07T02:40:35.006Z,4.70
2022-08-07T02:43:07.991Z,3.70
2022-08-07T02:45:59.025Z,3.60
2022-08-07T02:48:34.355Z,3.90
2022-08-07T02:51:29.096Z,4.00
2022-08-07T02:54:06.412Z,3.80
2022-08-07T02:56:42.133Z,3.50
2022-08-07T02:59:27.321Z,4.30
2022-08-07T03:02:02.198Z,3.50
2022-08-07T03:04:34.776Z,3.30
2022-08-07T03:07:10.555Z,3.80
2022-08-07T03:09:47.230Z,3.70
2022-08-07T03:12:21.879Z,3.30
2022-08-07T03:14:56.429Z,4.00
2022-08-07T03:17:28.588Z,3.50
2022-08-07T03:20:00.753Z,4.00
2022-08-07T03:22:33.244Z,3.40
2022-08-07T03:25:05.235Z,4.00
2022-08-07T03:28:08.854Z,5.40
2022-08-07T03:30:36.497Z,5.40
2022-08-07T03:33:11.770Z,4.70
2022-08-07T03:35:50.614Z,4.40
2022-08-07T03:38:29.547Z,4.70
2022-08-07T03:41:05.286Z,4.10
2022-08-07T03:43:56.979Z,4.00
2022-08-07T03:46:30.043Z,3.60
2022-08-07T03:49:03.499Z,3.90
2022-08-07T03:51:47.899Z,3.70
2022-08-07T03:54:35.446Z,4.10
2022-08-07T03:57:09.175Z,4.30
2022-08-07T03:59:46.930Z,4.70
2022-08-07T04:02:33.985Z,4.20
2022-08-07T04:05:06.211Z,3.70
2022-08-07T04:07:45.228Z,4.00
2022-08-07T04:10:19.657Z,3.90
2022-08-07T04:12:52.465Z,4.00
2022-08-07T04:15:24.761Z,4.90
2022-08-07T04:18:30.827Z,4.10
2022-08-07T04:20:54.550Z,3.70
2022-08-07T04:23:43.019Z,4.00
2022-08-07T04:26:21.847Z,4.20
2022-08-07T04:28:54.074Z,4.20
2022-08-07T04:31:39.134Z,4.10
2022-08-07T04:34:24.159Z,4.40
2022-08-07T04:37:07.947Z,4.00
2022-08-07T04:39:48.002Z,3.70
2022-08-07T04:42:21.761Z,3.50
2022-08-07T04:45:07.930Z,3.60
2022-08-07T04:48:01.446Z,2.90
2022-08-07T04:50:52.189Z,2.90
2022-08-07T04:54:01.162Z,2.60
2022-08-07T04:58:13.255Z,2.30
2022-08-07T05:00:10.858Z,2.50
2022-08-07T05:02:35.068Z,2.30
2022-08-07T05:05:53.193Z,2.60
2022-08-07T05:08:11.039Z,2.60
2022-08-07T05:10:48.377Z,2.60
2022-08-07T05:14:56.174Z,2.40
2022-08-07T05:16:18.563Z,2.80
2022-08-07T05:18:55.677Z,2.80
2022-08-07T05:22:00.021Z,2.90
2022-08-07T05:24:24.908Z,2.60
2022-08-07T05:27:03.570Z,3.00
2022-08-07T05:29:51.253Z,3.30
2022-08-07T05:32:26.604Z,2.80
2022-08-07T05:34:59.558Z,3.10
2022-08-07T05:37:40.730Z,2.60
2022-08-07T05:42:56.044Z,2.60
2022-08-07T05:45:47.680Z,2.80
2022-08-07T05:48:20.865Z,2.40
2022-08-07T05:51:01.208Z,2.30
2022-08-07T05:54:13.263Z,2.10
2022-08-07T05:56:29.976Z,2.30
2022-08-07T05:59:04.832Z,2.40
2022-08-07T06:01:39.489Z,1.90
2022-08-07T06:04:12.817Z,2.00
2022-08-07T06:06:56.779Z,1.60
2022-08-07T06:10:04.142Z,1.40
2022-08-07T06:12:33.064Z,1.80
2022-08-07T06:15:06.049Z,2.80
2022-08-07T06:17:41.205Z,2.00
2022-08-07T06:20:31.700Z,2.20
2022-08-07T06:23:45.982Z,1.40
2022-08-07T06:26:08.127Z,1.20
2022-08-07T06:28:53.167Z,1.70
2022-08-07T06:31:46.844Z,1.50
2022-08-07T06:34:19.587Z,1.40
2022-08-07T06:36:52.715Z,2.10
2022-08-07T06:40:15.575Z,1.80
2022-08-07T06:42:33.138Z,1.60
2022-08-07T06:45:11.826Z,2.00
2022-08-07T06:47:57.759Z,1.90
2022-08-07T06:50:33.643Z,2.00
2022-08-07T06:54:11.527Z,1.70
2022-08-07T06:56:03.764Z,1.90
2022-08-07T06:58:40.755Z,1.70
2022-08-07T07:01:44.170Z,2.30
2022-08-07T07:04:28.064Z,1.60
2022-08-07T07:07:10.726Z,1.90
2022-08-07T07:09:52.505Z,1.80
2022-08-07T07:12:41.698Z,2.00
2022-08-07T07:15:32.564Z,2.00
2022-08-07T07:18:12.867Z,1.80
2022-08-07T07:20:50.945Z,2.00
2022-08-07T07:24:10.029Z,1.90
2022-08-07T07:26:32.926Z,1.70
2022-08-07T07:29:38.932Z,1.90
2022-08-07T07:32:08.680Z,2.10
2022-08-07T07:34:45.250Z,2.00
2022-08-07T07:37:21.965Z,1.90
2022-08-07T07:40:16.215Z,1.90
2022-08-07T07:42:54.049Z,2.10
2022-08-07T07:46:37.327Z,1.60
2022-08-07T07:48:35.741Z,1.80
2022-08-07T07:51:08.813Z,2.10
2022-08-07T07:53:52.184Z,2.00
2022-08-07T07:56:29.995Z,1.80
2022-08-07T07:59:04.059Z,2.10
2022-08-07T08:02:04.963Z,2.00
2022-08-07T08:04:37.522Z,2.00
2022-08-07T08:07:11.231Z,1.90
2022-08-07T08:09:51.992Z,1.60
2022-08-07T08:12:52.686Z,1.90
2022-08-07T08:15:57.697Z,2.00
2022-08-07T08:18:30.698Z,1.90
2022-08-07T08:21:04.498Z,1.70
2022-08-07T08:23:57.427Z,2.20
2022-08-07T08:26:50.498Z,1.90
2022-08-07T08:29:22.741Z,2.10
2022-08-07T08:31:58.587Z,1.90
2022-08-07T08:34:46.154Z,2.40
2022-08-07T08:38:01.012Z,2.10
2022-08-07T08:40:23.517Z,2.20
2022-08-07T08:43:09.735Z,2.00
2022-08-07T08:45:59.142Z,3.10
2022-08-07T08:48:40.955Z,1.80
2022-08-07T08:51:26.310Z,2.20
2022-08-07T08:54:21.633Z,1.90
2022-08-07T08:56:57.647Z,2.10
2022-08-07T08:59:42.109Z,2.00
2022-08-07T09:05:37.266Z,1.80
2022-08-07T09:08:24.138Z,2.40
2022-08-07T09:11:14.070Z,1.70
2022-08-07T09:14:07.667Z,1.90
2022-08-07T09:16:52.305Z,1.70
2022-08-07T09:19:51.323Z,2.20
2022-08-07T09:24:28.696Z,1.80
2022-08-07T09:25:54.470Z,1.80
2022-08-07T09:30:04.645Z,1.80
2022-08-07T09:31:40.890Z,1.80
2022-08-07T09:34:30.929Z,2.10
2022-08-07T09:37:12.883Z,1.80
2022-08-07T09:39:57.940Z,1.90
2022-08-07T09:42:45.537Z,2.00
2022-08-07T09:47:52.193Z,1.70
2022-08-07T09:48:45.370Z,1.80
2022-08-07T09:52:10.101Z,2.10
2022-08-07T09:54:42.295Z,1.90
2022-08-07T09:57:31.177Z,1.60
2022-08-07T10:00:18.843Z,1.70
2022-08-07T10:03:08.160Z,1.50
2022-08-07T10:06:31.809Z,1.90
2022-08-07T10:09:34.435Z,1.70
2022-08-07T10:12:40.101Z,1.50
2022-08-07T10:15:44.083Z,1.60
2022-08-07T10:18:35.381Z,1.70
2022-08-07T10:21:50.761Z,2.00
2022-08-07T10:24:38.111Z,1.80
2022-08-07T10:27:30.139Z,2.00
2022-08-07T10:30:20.842Z,1.80
2022-08-07T10:34:05.913Z,1.60
2022-08-07T10:36:37.581Z,1.90
2022-08-07T10:39:42.105Z,1.40
2022-08-07T10:42:30.939Z,1.90
2022-08-07T10:45:19.265Z,1.60
2022-08-07T10:48:03.321Z,1.50
2022-08-07T10:50:49.960Z,1.80
2022-08-07T10:53:41.975Z,1.90
2022-08-07T10:56:33.130Z,1.70
2022-08-07T10:59:21.245Z,1.80
2022-08-07T11:02:11.904Z,1.50
2022-08-07T11:04:57.652Z,1.40
2022-08-07T11:07:59.085Z,1.70
2022-08-07T11:10:40.538Z,1.30
2022-08-07T11:14:46.518Z,1.50
2022-08-07T11:16:20.587Z,1.60
2022-08-07T11:19:21.434Z,1.60
2022-08-07T11:22:26.688Z,1.40
2022-08-07T11:25:12.185Z,1.70
2022-08-07T11:28:02.585Z,1.30
2022-08-07T11:30:47.934Z,1.50
2022-08-07T11:33:54.026Z,1.70
2022-08-07T11:36:41.121Z,1.60
2022-08-07T11:39:25.102Z,1.60
2022-08-07T11:42:19.247Z,1.60
2022-08-07T11:44:58.159Z,1.40
2022-08-07T11:47:56.132Z,1.60
2022-08-07T11:50:44.532Z,1.60
2022-08-07T11:54:00.893Z,1.90
2022-08-07T11:56:46.623Z,1.60
2022-08-07T12:00:11.670Z,1.50
2022-08-07T12:03:42.179Z,1.40
2022-08-07T12:06:37.378Z,1.30
2022-08-07T12:09:23.457Z,1.70
2022-08-07T12:12:10.001Z,1.60
2022-08-07T12:14:55.630Z,1.40
2022-08-07T12:17:59.022Z,1.40
2022-08-07T12:24:05.013Z,1.50
2022-08-07T12:26:29.991Z,1.40
2022-08-07T12:29:12.474Z,1.40
2022-08-07T12:32:04.034Z,1.40
2022-08-07T12:34:49.508Z,1.40
2022-08-07T12:38:10.836Z,1.20
2022-08-07T12:40:46.818Z,1.30
2022-08-07T12:44:01.517Z,1.30
2022-08-07T12:46:26.469Z,1.30
2022-08-07T12:49:39.341Z,1.50
2022-08-07T12:52:17.185Z,1.60
2022-08-07T12:55:03.739Z,1.60
2022-08-07T12:58:01.085Z,1.30
2022-08-07T13:00:50.406Z,1.60
2022-08-07T13:03:59.138Z,1.50
2022-08-07T13:07:01.389Z,1.40
2022-08-07T13:10:38.259Z,1.50
2022-08-07T13:13:03.289Z,1.30
2022-08-07T13:15:44.556Z,1.60
2022-08-07T13:18:28.875Z,1.40
2022-08-07T13:21:08.459Z,1.40
2022-08-07T13:24:02.222Z,1.80
2022-08-07T13:26:46.230Z,1.30
2022-08-07T13:29:24.971Z,1.50
2022-08-07T13:32:31.245Z,1.30
2022-08-07T13:35:03.244Z,1.60
2022-08-07T13:37:59.188Z,1.40
2022-08-07T13:40:42.862Z,1.10
2022-08-07T13:43:16.420Z,1.10
2022-08-07T13:46:12.284Z,1.40
2022-08-07T13:48:58.292Z,1.20
2022-08-07T13:52:05.588Z,1.20
2022-08-07T13:54:35.670Z,1.50
2022-08-07T13:57:14.649Z,1.20
2022-08-07T13:59:59.983Z,1.20
2022-08-07T14:02:49.139Z,1.30
2022-08-07T14:05:37.386Z,1.20
2022-08-07T14:08:12.832Z,1.80
2022-08-07T14:10:46.932Z,1.10
2022-08-07T14:13:45.040Z,1.30
2022-08-07T14:16:27.131Z,1.30
2022-08-07T14:19:06.106Z,1.30
2022-08-07T14:22:01.696Z,1.40
2022-08-07T14:24:41.457Z,1.30
2022-08-07T14:27:16.214Z,1.60
2022-08-07T14:30:14.055Z,1.40
2022-08-07T14:32:55.896Z,1.30
2022-08-07T14:35:45.212Z,1.40
2022-08-07T14:38:30.949Z,1.40
2022-08-07T14:41:06.340Z,1.70
2022-08-07T14:43:58.551Z,1.60
2022-08-07T14:46:51.666Z,1.80
2022-08-07T14:49:57.307Z,1.40
2022-08-07T14:52:27.734Z,1.50
2022-08-07T14:57:58.953Z,2.10
2022-08-07T15:00:34.802Z,1.70
2022-08-07T15:03:18.785Z,1.50
2022-08-07T15:06:04.032Z,1.70
2022-08-07T15:11:50.782Z,1.70
2022-08-07T15:14:30.474Z,1.60
2022-08-07T15:17:11.579Z,1.40
2022-08-07T15:20:33.107Z,1.40
2022-08-07T15:22:53.723Z,1.50
2022-08-07T15:25:36.777Z,1.50
2022-08-07T15:28:34.782Z,1.40
2022-08-07T15:31:07.425Z,1.60
2022-08-07T15:33:43.035Z,1.50
2022-08-07T15:36:15.559Z,1.70
2022-08-07T15:39:10.607Z,1.30
2022-08-07T15:42:43.967Z,1.70
2022-08-07T15:44:54.650Z,1.50
2022-08-07T15:47:42.787Z,1.20
2022-08-07T15:50:38.032Z,1.60
2022-08-07T15:53:18.361Z,1.50
2022-08-07T15:56:02.796Z,1.40
2022-08-07T15:58:42.205Z,1.50
2022-08-07T16:01:38.745Z,1.30
2022-08-07T16:04:15.561Z,1.80
2022-08-07T16:06:52.641Z,1.60
2022-08-07T16:09:41.210Z,1.40
2022-08-07T16:12:29.151Z,1.60
2022-08-07T16:15:55.308Z,1.50
2022-08-07T16:18:49.984Z,1.50
2022-08-07T16:22:02.632Z,1.50
2022-08-07T16:24:33.962Z,1.50
2022-08-07T16:27:20.827Z,1.60
2022-08-07T16:30:30.148Z,1.70
2022-08-07T16:34:02.643Z,2.00
2022-08-07T16:36:31.504Z,1.80
2022-08-07T16:39:33.597Z,1.80
2022-08-07T16:42:29.840Z,1.70
2022-08-07T16:46:47.225Z,1.80
2022-08-07T16:48:53.756Z,1.60
2022-08-07T16:52:01.754Z,1.90
2022-08-07T16:54:55.387Z,1.70
2022-08-07T16:58:01.885Z,1.70
2022-08-07T17:00:34.828Z,1.50
2022-08-07T17:03:19.703Z,1.80
2022-08-07T17:06:41.115Z,1.80
2022-08-07T17:10:06.126Z,1.70
2022-08-07T17:15:20.778Z,1.50
2022-08-07T17:18:12.722Z,2.00
2022-08-07T17:20:46.653Z,1.70
2022-08-07T17:23:41.265Z,1.60
2022-08-07T17:26:22.797Z,1.90
2022-08-07T17:29:08.600Z,2.20
2022-08-07T17:32:02.637Z,1.50
2022-08-07T17:35:40.033Z,1.70
2022-08-07T17:38:05.959Z,1.50
2022-08-07T17:40:41.009Z,1.70
2022-08-07T17:43:19.997Z,1.50
2022-08-07T17:46:34.581Z,3.10
2022-08-07T17:49:23.945Z,3.70
2022-08-07T17:52:03.591Z,3.90
2022-08-07T17:54:54.355Z,3.90
2022-08-07T17:57:58.352Z,5.30
2022-08-07T18:00:34.312Z,3.20
2022-08-07T18:03:25.590Z,4.00
2022-08-07T18:06:06.327Z,6.30
2022-08-07T18:09:01.974Z,9.20
2022-08-07T18:12:12.004Z,8.30
2022-08-07T18:14:47.094Z,8.10
2022-08-07T18:18:45.569Z,7.30
2022-08-07T18:21:06.882Z,5.50
2022-08-07T18:23:57.133Z,3.80
2022-08-07T18:26:46.633Z,3.30
2022-08-07T18:30:04.566Z,3.60
2022-08-07T18:32:46.333Z,3.10
2022-08-07T18:35:22.710Z,2.60
2022-08-07T18:38:58.179Z,2.90
2022-08-07T18:41:17.242Z,3.80
2022-08-07T18:44:01.697Z,3.40
2022-08-07T18:46:42.866Z,3.20
2022-08-07T18:50:30.925Z,3.30
2022-08-07T18:52:51.951Z,3.50
2022-08-07T18:55:55.260Z,3.30
2022-08-07T18:58:51.137Z,4.00
2022-08-07T19:02:18.591Z,3.80
2022-08-07T19:04:54.404Z,4.60
2022-08-07T19:07:51.973Z,3.90
2022-08-07T19:10:51.479Z,4.50
2022-08-07T19:13:37.321Z,4.60
2022-08-07T19:16:43.166Z,5.60
2022-08-07T19:19:19.897Z,5.40
2022-08-07T19:22:11.422Z,5.60
2022-08-07T19:24:48.900Z,4.80
2022-08-07T19:28:56.942Z,4.20
2022-08-07T19:31:03.258Z,4.10
2022-08-07T19:33:15.623Z,4.40
2022-08-07T19:35:56.741Z,4.70
2022-08-07T19:38:33.426Z,5.10
2022-08-07T19:41:06.767Z,4.50
2022-08-07T19:43:51.183Z,4.90
2022-08-07T19:46:30.722Z,4.90
2022-08-07T19:49:07.010Z,4.30
2022-08-07T19:51:51.872Z,4.70
2022-08-07T19:54:29.817Z,4.30
2022-08-07T19:58:02.555Z,4.20
2022-08-07T20:00:09.057Z,3.90
2022-08-07T20:02:51.634Z,3.90
2022-08-07T20:05:28.672Z,3.40
2022-08-07T20:08:05.134Z,4.50
2022-08-07T20:10:54.353Z,4.10
2022-08-07T20:13:35.388Z,4.00
2022-08-07T20:16:22.469Z,4.60
2022-08-07T20:19:04.473Z,5.00
2022-08-07T20:21:46.867Z,5.70
2022-08-07T20:24:24.121Z,6.90
2022-08-07T20:27:04.231Z,6.90
2022-08-07T20:29:49.098Z,6.60
2022-08-07T20:32:39.973Z,7.00
2022-08-07T20:35:18.569Z,7.80
2022-08-07T20:37:59.814Z,7.30
2022-08-07T20:40:43.133Z,7.40
2022-08-07T20:43:28.169Z,7.50
2022-08-07T20:46:28.386Z,6.70
2022-08-07T20:49:54.265Z,7.60
2022-08-07T20:51:50.820Z,6.50
2022-08-07T20:54:31.684Z,6.10
2022-08-07T20:57:08.325Z,5.90
2022-08-07T21:00:07.426Z,7.00
2022-08-07T21:03:01.267Z,6.60
2022-08-07T21:05:50.975Z,6.00
2022-08-07T21:08:37.962Z,6.30
2022-08-07T21:11:14.296Z,5.40
2022-08-07T21:14:16.904Z,6.10
2022-08-07T21:16:56.816Z,6.60
2022-08-07T21:20:01.088Z,5.70
2022-08-07T21:22:44.703Z,6.20
2022-08-07T21:25:24.700Z,5.70
2022-08-07T21:28:13.493Z,5.50
2022-08-07T21:31:10.536Z,5.80
2022-08-07T21:33:50.919Z,7.30
2022-08-07T21:36:32.783Z,6.90
2022-08-07T21:39:46.628Z,6.70
2022-08-07T21:42:42.224Z,6.80
2022-08-07T21:46:07.598Z,7.10
2022-08-07T21:48:27.682Z,7.10
2022-08-07T21:51:20.410Z,6.10
2022-08-07T21:54:09.348Z,6.40
2022-08-07T21:56:48.983Z,6.50
2022-08-07T21:59:36.423Z,5.80
2022-08-07T22:02:35.354Z,5.90
2022-08-07T22:05:12.240Z,5.80
2022-08-07T22:07:58.723Z,5.90
2022-08-07T22:10:35.579Z,7.00
2022-08-07T22:13:13.599Z,6.20
2022-08-07T22:16:42.502Z,5.50
2022-08-07T22:18:50.958Z,6.00
2022-08-07T22:22:05.166Z,5.30
2022-08-07T22:24:33.048Z,5.50
2022-08-07T22:27:10.412Z,5.00
2022-08-07T22:29:50.348Z,4.80
2022-08-07T22:32:33.539Z,5.50
2022-08-07T22:35:07.970Z,5.20
2022-08-07T22:38:03.555Z,4.90
2022-08-07T22:40:43.300Z,5.30
2022-08-07T22:43:17.994Z,5.20
2022-08-07T22:46:43.367Z,6.30
2022-08-07T22:49:24.367Z,5.60
2022-08-07T22:52:37.110Z,5.00
2022-08-07T22:55:32.171Z,4.80
2022-08-07T22:58:21.617Z,5.20
2022-08-07T23:01:16.305Z,5.40
2022-08-07T23:04:04.687Z,5.60
2022-08-07T23:06:51.791Z,4.40
2022-08-07T23:10:06.296Z,4.50
2022-08-07T23:12:56.784Z,4.90
2022-08-07T23:16:07.350Z,5.50
2022-08-07T23:19:11.414Z,4.70
2022-08-07T23:21:52.798Z,4.20
2022-08-07T23:24:45.462Z,5.10
2022-08-07T23:28:21.632Z,4.50
2022-08-07T23:30:43.451Z,4.60
2022-08-07T23:37:17.641Z,4.20
2022-08-07T23:39:48.012Z,4.70
2022-08-07T23:42:38.257Z,4.50
2022-08-07T23:45:43.523Z,4.50
2022-08-07T23:48:48.410Z,4.40
2022-08-07T23:52:58.956Z,4.10
2022-08-07T23:54:35.872Z,3.50
2022-08-07T23:57:24.624Z,3.90
